sensor_id;sensor_type;location;lat;lon;timestamp;temperature;humidity
26703;DHT22;14316;51.074;3.704;2023-02-17T00:02:24;10.60;99.90
26703;DHT22;14316;51.074;3.704;2023-02-17T00:04:52;10.60;99.90
26703;DHT22;14316;51.074;3.704;2023-02-17T00:07:18;10.60;99.90
26703;DHT22;14316;51.074;3.704;2023-02-17T00:09:44;10.60;99.90
26703;DHT22;14316;51.074;3.704;2023-02-17T00:12:10;10.50;99.90
26703;DHT22;14316;51.074;3.704;2023-02-17T00:14:38;10.50;99.90
26703;DHT22;14316;51.074;3.704;2023-02-17T00:17:04;10.50;99.90
26703;DHT22;14316;51.074;3.704;2023-02-17T00:19:30;10.50;99.90
26703;DHT22;14316;51.074;3.704;2023-02-17T00:21:58;10.50;99.90
26703;DHT22;14316;51.074;3.704;2023-02-17T00:24:26;10.40;99.90
26703;DHT22;14316;51.074;3.704;2023-02-17T00:26:52;10.40;99.90
26703;DHT22;14316;51.074;3.704;2023-02-17T00:29:18;10.40;99.90
26703;DHT22;14316;51.074;3.704;2023-02-17T00:31:44;10.50;99.90
26703;DHT22;14316;51.074;3.704;2023-02-17T00:34:10;10.40;99.90
26703;DHT22;14316;51.074;3.704;2023-02-17T00:36:37;10.40;99.90
26703;DHT22;14316;51.074;3.704;2023-02-17T00:39:04;10.50;99.90
26703;DHT22;14316;51.074;3.704;2023-02-17T00:41:30;10.50;99.90
26703;DHT22;14316;51.074;3.704;2023-02-17T00:43:56;10.50;99.90
26703;DHT22;14316;51.074;3.704;2023-02-17T00:46:25;10.40;99.90
26703;DHT22;14316;51.074;3.704;2023-02-17T00:48:52;10.40;99.90
26703;DHT22;14316;51.074;3.704;2023-02-17T00:51:18;10.50;99.90
26703;DHT22;14316;51.074;3.704;2023-02-17T00:53:45;10.50;99.90
26703;DHT22;14316;51.074;3.704;2023-02-17T00:56:11;10.50;99.90
26703;DHT22;14316;51.074;3.704;2023-02-17T00:58:38;10.50;99.90
26703;DHT22;14316;51.074;3.704;2023-02-17T01:01:07;10.50;99.90
26703;DHT22;14316;51.074;3.704;2023-02-17T01:03:33;10.40;99.90
26703;DHT22;14316;51.074;3.704;2023-02-17T01:06:03;10.40;99.90
26703;DHT22;14316;51.074;3.704;2023-02-17T01:08:29;10.40;99.90
26703;DHT22;14316;51.074;3.704;2023-02-17T01:10:55;10.40;99.90
26703;DHT22;14316;51.074;3.704;2023-02-17T01:13:22;10.40;99.90
26703;DHT22;14316;51.074;3.704;2023-02-17T01:15:50;10.40;99.90
26703;DHT22;14316;51.074;3.704;2023-02-17T01:18:19;10.40;99.90
26703;DHT22;14316;51.074;3.704;2023-02-17T01:20:45;10.40;99.90
26703;DHT22;14316;51.074;3.704;2023-02-17T01:23:12;10.40;99.90
26703;DHT22;14316;51.074;3.704;2023-02-17T01:25:40;10.40;99.90
26703;DHT22;14316;51.074;3.704;2023-02-17T01:28:06;10.40;99.90
26703;DHT22;14316;51.074;3.704;2023-02-17T01:30:32;10.40;99.90
26703;DHT22;14316;51.074;3.704;2023-02-17T01:32:58;10.40;99.90
26703;DHT22;14316;51.074;3.704;2023-02-17T01:35:24;10.40;99.90
26703;DHT22;14316;51.074;3.704;2023-02-17T01:37:50;10.40;99.90
26703;DHT22;14316;51.074;3.704;2023-02-17T01:40:16;10.40;99.90
26703;DHT22;14316;51.074;3.704;2023-02-17T01:42:45;10.30;99.90
26703;DHT22;14316;51.074;3.704;2023-02-17T01:50:27;10.50;99.90
26703;DHT22;14316;51.074;3.704;2023-02-17T01:52:56;10.30;99.90
26703;DHT22;14316;51.074;3.704;2023-02-17T01:55:23;10.30;99.90
26703;DHT22;14316;51.074;3.704;2023-02-17T01:57:53;10.20;99.90
26703;DHT22;14316;51.074;3.704;2023-02-17T02:00:21;10.20;99.90
26703;DHT22;14316;51.074;3.704;2023-02-17T02:02:49;10.20;99.90
26703;DHT22;14316;51.074;3.704;2023-02-17T02:05:17;10.20;99.90
26703;DHT22;14316;51.074;3.704;2023-02-17T02:07:43;10.20;99.90
26703;DHT22;14316;51.074;3.704;2023-02-17T02:10:12;10.20;99.90
26703;DHT22;14316;51.074;3.704;2023-02-17T02:12:39;10.20;99.90
26703;DHT22;14316;51.074;3.704;2023-02-17T02:15:10;10.10;99.90
26703;DHT22;14316;51.074;3.704;2023-02-17T02:26:32;10.00;99.90
26703;DHT22;14316;51.074;3.704;2023-02-17T02:31:45;10.00;99.90
26703;DHT22;14316;51.074;3.704;2023-02-17T02:34:21;10.00;99.90
26703;DHT22;14316;51.074;3.704;2023-02-17T02:39:28;9.90;99.90
26703;DHT22;14316;51.074;3.704;2023-02-17T02:42:01;9.90;99.90
26703;DHT22;14316;51.074;3.704;2023-02-17T02:44:29;9.90;99.90
26703;DHT22;14316;51.074;3.704;2023-02-17T02:47:00;9.90;99.90
26703;DHT22;14316;51.074;3.704;2023-02-17T02:49:28;9.90;99.90
26703;DHT22;14316;51.074;3.704;2023-02-17T03:00:24;10.00;99.90
26703;DHT22;14316;51.074;3.704;2023-02-17T03:05:41;10.00;99.90
26703;DHT22;14316;51.074;3.704;2023-02-17T03:08:13;10.00;99.90
26703;DHT22;14316;51.074;3.704;2023-02-17T03:10:50;10.00;99.90
26703;DHT22;14316;51.074;3.704;2023-02-17T03:13:18;10.00;99.90
26703;DHT22;14316;51.074;3.704;2023-02-17T03:15:44;10.00;99.90
26703;DHT22;14316;51.074;3.704;2023-02-17T03:18:10;10.00;99.90
26703;DHT22;14316;51.074;3.704;2023-02-17T03:21:01;10.00;99.90
26703;DHT22;14316;51.074;3.704;2023-02-17T03:23:24;10.00;99.90
26703;DHT22;14316;51.074;3.704;2023-02-17T03:25:49;10.00;99.90
26703;DHT22;14316;51.074;3.704;2023-02-17T03:28:15;10.00;99.90
26703;DHT22;14316;51.074;3.704;2023-02-17T03:30:41;10.00;99.90
26703;DHT22;14316;51.074;3.704;2023-02-17T03:33:07;10.00;99.90
26703;DHT22;14316;51.074;3.704;2023-02-17T03:35:33;10.00;99.90
26703;DHT22;14316;51.074;3.704;2023-02-17T03:37:59;10.00;99.90
26703;DHT22;14316;51.074;3.704;2023-02-17T03:40:25;10.10;99.90
26703;DHT22;14316;51.074;3.704;2023-02-17T03:42:51;10.00;99.90
26703;DHT22;14316;51.074;3.704;2023-02-17T03:45:17;10.00;99.90
26703;DHT22;14316;51.074;3.704;2023-02-17T03:47:43;10.10;99.90
26703;DHT22;14316;51.074;3.704;2023-02-17T03:50:09;10.00;99.90
26703;DHT22;14316;51.074;3.704;2023-02-17T03:52:35;10.00;99.90
26703;DHT22;14316;51.074;3.704;2023-02-17T03:55:00;10.10;99.90
26703;DHT22;14316;51.074;3.704;2023-02-17T03:57:26;10.10;99.90
26703;DHT22;14316;51.074;3.704;2023-02-17T03:59:52;10.10;99.90
26703;DHT22;14316;51.074;3.704;2023-02-17T04:02:18;10.10;99.90
26703;DHT22;14316;51.074;3.704;2023-02-17T04:04:44;10.10;99.90
26703;DHT22;14316;51.074;3.704;2023-02-17T04:07:10;10.10;99.90
26703;DHT22;14316;51.074;3.704;2023-02-17T04:09:35;10.10;99.90
26703;DHT22;14316;51.074;3.704;2023-02-17T04:12:02;10.10;99.90
26703;DHT22;14316;51.074;3.704;2023-02-17T04:14:27;10.00;99.90
26703;DHT22;14316;51.074;3.704;2023-02-17T04:16:53;10.10;99.90
26703;DHT22;14316;51.074;3.704;2023-02-17T04:19:19;10.00;99.90
26703;DHT22;14316;51.074;3.704;2023-02-17T04:21:45;10.10;99.90
26703;DHT22;14316;51.074;3.704;2023-02-17T04:24:11;10.10;99.90
26703;DHT22;14316;51.074;3.704;2023-02-17T04:26:37;10.10;99.90
26703;DHT22;14316;51.074;3.704;2023-02-17T04:29:04;10.10;99.90
26703;DHT22;14316;51.074;3.704;2023-02-17T04:31:30;10.10;99.90
26703;DHT22;14316;51.074;3.704;2023-02-17T04:33:56;10.00;99.90
26703;DHT22;14316;51.074;3.704;2023-02-17T04:36:22;10.10;99.90
26703;DHT22;14316;51.074;3.704;2023-02-17T04:38:48;10.00;99.90
26703;DHT22;14316;51.074;3.704;2023-02-17T04:41:14;10.10;99.90
26703;DHT22;14316;51.074;3.704;2023-02-17T04:43:40;10.10;99.90
26703;DHT22;14316;51.074;3.704;2023-02-17T04:46:05;10.10;99.90
26703;DHT22;14316;51.074;3.704;2023-02-17T04:48:32;10.10;99.90
26703;DHT22;14316;51.074;3.704;2023-02-17T04:50:57;10.10;99.90
26703;DHT22;14316;51.074;3.704;2023-02-17T04:53:23;10.10;99.90
26703;DHT22;14316;51.074;3.704;2023-02-17T04:55:51;9.90;99.90
26703;DHT22;14316;51.074;3.704;2023-02-17T04:58:18;9.80;99.90
26703;DHT22;14316;51.074;3.704;2023-02-17T05:00:46;9.80;99.90
26703;DHT22;14316;51.074;3.704;2023-02-17T05:03:12;9.70;99.90
26703;DHT22;14316;51.074;3.704;2023-02-17T05:05:37;9.70;99.90
26703;DHT22;14316;51.074;3.704;2023-02-17T05:08:03;9.70;99.90
26703;DHT22;14316;51.074;3.704;2023-02-17T05:10:29;9.70;99.90
26703;DHT22;14316;51.074;3.704;2023-02-17T05:12:56;9.70;99.90
26703;DHT22;14316;51.074;3.704;2023-02-17T05:15:21;9.70;99.90
26703;DHT22;14316;51.074;3.704;2023-02-17T05:17:47;9.70;99.90
26703;DHT22;14316;51.074;3.704;2023-02-17T05:20:13;9.70;99.90
26703;DHT22;14316;51.074;3.704;2023-02-17T05:22:39;9.70;99.90
26703;DHT22;14316;51.074;3.704;2023-02-17T05:25:05;9.70;99.90
26703;DHT22;14316;51.074;3.704;2023-02-17T05:27:32;9.70;99.90
26703;DHT22;14316;51.074;3.704;2023-02-17T05:29:57;9.70;99.90
26703;DHT22;14316;51.074;3.704;2023-02-17T05:32:24;9.80;99.90
26703;DHT22;14316;51.074;3.704;2023-02-17T05:34:49;9.80;99.90
26703;DHT22;14316;51.074;3.704;2023-02-17T05:37:15;9.80;99.90
26703;DHT22;14316;51.074;3.704;2023-02-17T05:39:41;9.40;99.90
26703;DHT22;14316;51.074;3.704;2023-02-17T05:42:06;9.80;99.90
26703;DHT22;14316;51.074;3.704;2023-02-17T05:44:32;9.80;99.90
26703;DHT22;14316;51.074;3.704;2023-02-17T05:46:58;9.90;99.90
26703;DHT22;14316;51.074;3.704;2023-02-17T05:49:25;9.90;99.90
26703;DHT22;14316;51.074;3.704;2023-02-17T05:51:50;9.90;99.90
26703;DHT22;14316;51.074;3.704;2023-02-17T05:54:16;9.90;99.90
26703;DHT22;14316;51.074;3.704;2023-02-17T05:56:42;9.90;99.90
26703;DHT22;14316;51.074;3.704;2023-02-17T05:59:08;10.00;99.90
26703;DHT22;14316;51.074;3.704;2023-02-17T06:01:33;10.00;99.90
26703;DHT22;14316;51.074;3.704;2023-02-17T06:03:59;10.00;99.90
26703;DHT22;14316;51.074;3.704;2023-02-17T06:06:25;10.10;99.90
26703;DHT22;14316;51.074;3.704;2023-02-17T06:08:51;10.10;99.90
26703;DHT22;14316;51.074;3.704;2023-02-17T06:11:17;10.10;99.90
26703;DHT22;14316;51.074;3.704;2023-02-17T06:13:43;10.10;99.90
26703;DHT22;14316;51.074;3.704;2023-02-17T06:16:09;10.10;99.90
26703;DHT22;14316;51.074;3.704;2023-02-17T06:18:36;10.10;99.90
26703;DHT22;14316;51.074;3.704;2023-02-17T06:21:03;10.10;99.90
26703;DHT22;14316;51.074;3.704;2023-02-17T06:23:31;10.20;99.90
26703;DHT22;14316;51.074;3.704;2023-02-17T06:25:57;10.20;99.90
26703;DHT22;14316;51.074;3.704;2023-02-17T06:28:22;10.20;99.90
26703;DHT22;14316;51.074;3.704;2023-02-17T06:30:48;10.20;99.90
26703;DHT22;14316;51.074;3.704;2023-02-17T06:33:14;10.20;99.90
26703;DHT22;14316;51.074;3.704;2023-02-17T06:35:40;10.30;99.90
26703;DHT22;14316;51.074;3.704;2023-02-17T06:38:07;10.30;99.90
26703;DHT22;14316;51.074;3.704;2023-02-17T06:40:32;10.30;99.90
26703;DHT22;14316;51.074;3.704;2023-02-17T06:42:58;10.30;99.90
26703;DHT22;14316;51.074;3.704;2023-02-17T06:45:24;10.30;99.90
26703;DHT22;14316;51.074;3.704;2023-02-17T06:47:49;10.30;99.90
26703;DHT22;14316;51.074;3.704;2023-02-17T06:50:16;10.40;99.90
26703;DHT22;14316;51.074;3.704;2023-02-17T06:52:42;10.40;99.90
26703;DHT22;14316;51.074;3.704;2023-02-17T06:55:07;10.40;99.90
26703;DHT22;14316;51.074;3.704;2023-02-17T06:57:34;10.40;99.90
26703;DHT22;14316;51.074;3.704;2023-02-17T06:59:59;10.40;99.90
26703;DHT22;14316;51.074;3.704;2023-02-17T07:02:26;10.40;99.90
26703;DHT22;14316;51.074;3.704;2023-02-17T07:04:52;10.40;99.90
26703;DHT22;14316;51.074;3.704;2023-02-17T07:07:17;10.50;99.90
26703;DHT22;14316;51.074;3.704;2023-02-17T07:09:44;10.50;99.90
26703;DHT22;14316;51.074;3.704;2023-02-17T07:12:12;10.50;99.90
26703;DHT22;14316;51.074;3.704;2023-02-17T07:14:38;10.50;99.90
26703;DHT22;14316;51.074;3.704;2023-02-17T07:17:04;10.60;99.90
26703;DHT22;14316;51.074;3.704;2023-02-17T07:19:30;10.60;99.90
26703;DHT22;14316;51.074;3.704;2023-02-17T07:21:56;10.60;99.90
26703;DHT22;14316;51.074;3.704;2023-02-17T07:24:22;10.60;99.90
26703;DHT22;14316;51.074;3.704;2023-02-17T07:26:48;10.60;99.90
26703;DHT22;14316;51.074;3.704;2023-02-17T07:29:14;10.60;99.90
26703;DHT22;14316;51.074;3.704;2023-02-17T07:31:39;10.60;99.90
26703;DHT22;14316;51.074;3.704;2023-02-17T07:34:05;10.60;99.90
26703;DHT22;14316;51.074;3.704;2023-02-17T07:36:32;10.60;99.90
26703;DHT22;14316;51.074;3.704;2023-02-17T07:38:58;10.60;99.90
26703;DHT22;14316;51.074;3.704;2023-02-17T07:41:24;10.70;99.90
26703;DHT22;14316;51.074;3.704;2023-02-17T07:43:54;10.70;99.90
26703;DHT22;14316;51.074;3.704;2023-02-17T07:46:21;10.70;99.90
26703;DHT22;14316;51.074;3.704;2023-02-17T07:48:47;10.70;99.90
26703;DHT22;14316;51.074;3.704;2023-02-17T07:51:16;10.70;99.90
26703;DHT22;14316;51.074;3.704;2023-02-17T07:53:42;10.70;99.90
26703;DHT22;14316;51.074;3.704;2023-02-17T07:56:09;10.70;99.90
26703;DHT22;14316;51.074;3.704;2023-02-17T07:58:38;10.70;99.90
26703;DHT22;14316;51.074;3.704;2023-02-17T08:03:36;10.80;99.90
26703;DHT22;14316;51.074;3.704;2023-02-17T08:06:02;10.70;99.90
26703;DHT22;14316;51.074;3.704;2023-02-17T08:08:28;10.70;99.90
26703;DHT22;14316;51.074;3.704;2023-02-17T08:11:14;10.70;99.90
26703;DHT22;14316;51.074;3.704;2023-02-17T08:13:59;10.70;99.90
26703;DHT22;14316;51.074;3.704;2023-02-17T08:16:26;10.70;99.90
26703;DHT22;14316;51.074;3.704;2023-02-17T08:18:53;10.70;99.90
26703;DHT22;14316;51.074;3.704;2023-02-17T08:21:23;10.70;99.90
26703;DHT22;14316;51.074;3.704;2023-02-17T08:23:49;10.70;99.90
26703;DHT22;14316;51.074;3.704;2023-02-17T08:26:15;10.80;99.90
26703;DHT22;14316;51.074;3.704;2023-02-17T08:28:42;10.80;99.90
26703;DHT22;14316;51.074;3.704;2023-02-17T08:31:28;10.80;99.90
26703;DHT22;14316;51.074;3.704;2023-02-17T08:33:59;10.80;99.90
26703;DHT22;14316;51.074;3.704;2023-02-17T08:36:27;10.80;99.90
26703;DHT22;14316;51.074;3.704;2023-02-17T08:38:54;10.80;99.90
26703;DHT22;14316;51.074;3.704;2023-02-17T08:41:33;10.80;99.90
26703;DHT22;14316;51.074;3.704;2023-02-17T08:44:01;10.80;99.90
26703;DHT22;14316;51.074;3.704;2023-02-17T08:46:28;10.80;99.90
26703;DHT22;14316;51.074;3.704;2023-02-17T08:48:54;10.80;99.90
26703;DHT22;14316;51.074;3.704;2023-02-17T08:51:22;10.80;99.90
26703;DHT22;14316;51.074;3.704;2023-02-17T08:53:54;10.80;99.90
26703;DHT22;14316;51.074;3.704;2023-02-17T08:56:24;10.90;99.90
26703;DHT22;14316;51.074;3.704;2023-02-17T08:58:50;10.90;99.90
26703;DHT22;14316;51.074;3.704;2023-02-17T09:01:16;11.00;99.90
26703;DHT22;14316;51.074;3.704;2023-02-17T09:03:45;11.00;99.90
26703;DHT22;14316;51.074;3.704;2023-02-17T09:06:11;11.10;99.90
26703;DHT22;14316;51.074;3.704;2023-02-17T09:08:40;11.00;99.90
26703;DHT22;14316;51.074;3.704;2023-02-17T09:11:09;11.10;99.90
26703;DHT22;14316;51.074;3.704;2023-02-17T09:13:36;11.10;99.90
26703;DHT22;14316;51.074;3.704;2023-02-17T09:16:02;11.20;99.90
26703;DHT22;14316;51.074;3.704;2023-02-17T09:18:29;11.20;99.90
26703;DHT22;14316;51.074;3.704;2023-02-17T09:20:54;11.20;99.90
26703;DHT22;14316;51.074;3.704;2023-02-17T09:23:20;11.20;99.90
26703;DHT22;14316;51.074;3.704;2023-02-17T09:25:46;11.20;99.90
26703;DHT22;14316;51.074;3.704;2023-02-17T09:28:12;11.20;99.90
26703;DHT22;14316;51.074;3.704;2023-02-17T09:30:39;11.10;99.90
26703;DHT22;14316;51.074;3.704;2023-02-17T09:33:05;11.10;99.90
26703;DHT22;14316;51.074;3.704;2023-02-17T09:35:34;11.10;99.90
26703;DHT22;14316;51.074;3.704;2023-02-17T09:38:01;11.10;99.90
26703;DHT22;14316;51.074;3.704;2023-02-17T09:40:37;11.20;99.90
26703;DHT22;14316;51.074;3.704;2023-02-17T09:43:22;11.20;99.90
26703;DHT22;14316;51.074;3.704;2023-02-17T09:45:50;11.20;99.90
26703;DHT22;14316;51.074;3.704;2023-02-17T09:48:20;11.20;99.90
26703;DHT22;14316;51.074;3.704;2023-02-17T09:51:13;11.30;99.90
26703;DHT22;14316;51.074;3.704;2023-02-17T09:53:46;11.40;99.90
26703;DHT22;14316;51.074;3.704;2023-02-17T09:56:17;11.40;99.90
26703;DHT22;14316;51.074;3.704;2023-02-17T09:58:54;11.50;99.90
26703;DHT22;14316;51.074;3.704;2023-02-17T10:01:27;11.50;99.90
26703;DHT22;14316;51.074;3.704;2023-02-17T10:12:18;11.60;99.90
26703;DHT22;14316;51.074;3.704;2023-02-17T10:17:34;11.80;99.90
26703;DHT22;14316;51.074;3.704;2023-02-17T10:20:08;11.80;99.90
26703;DHT22;14316;51.074;3.704;2023-02-17T10:22:35;11.80;99.90
26703;DHT22;14316;51.074;3.704;2023-02-17T10:25:13;11.80;99.90
26703;DHT22;14316;51.074;3.704;2023-02-17T10:27:45;11.80;99.90
26703;DHT22;14316;51.074;3.704;2023-02-17T10:33:20;12.00;99.90
26703;DHT22;14316;51.074;3.704;2023-02-17T10:35:53;12.00;99.90
26703;DHT22;14316;51.074;3.704;2023-02-17T10:41:01;12.00;99.90
26703;DHT22;14316;51.074;3.704;2023-02-17T10:43:30;12.00;99.90
26703;DHT22;14316;51.074;3.704;2023-02-17T10:45:59;12.00;99.90
26703;DHT22;14316;51.074;3.704;2023-02-17T10:48:34;12.00;99.90
26703;DHT22;14316;51.074;3.704;2023-02-17T10:51:01;12.10;99.90
26703;DHT22;14316;51.074;3.704;2023-02-17T10:53:33;12.10;99.90
26703;DHT22;14316;51.074;3.704;2023-02-17T10:58:59;12.10;99.90
26703;DHT22;14316;51.074;3.704;2023-02-17T11:01:27;12.10;99.90
26703;DHT22;14316;51.074;3.704;2023-02-17T11:04:07;12.00;99.90
26703;DHT22;14316;51.074;3.704;2023-02-17T11:06:46;11.90;99.90
26703;DHT22;14316;51.074;3.704;2023-02-17T11:09:22;11.80;99.90
26703;DHT22;14316;51.074;3.704;2023-02-17T11:12:02;11.70;99.90
26703;DHT22;14316;51.074;3.704;2023-02-17T11:14:30;11.70;99.90
26703;DHT22;14316;51.074;3.704;2023-02-17T11:16:59;11.60;99.90
26703;DHT22;14316;51.074;3.704;2023-02-17T11:19:31;11.50;99.90
26703;DHT22;14316;51.074;3.704;2023-02-17T11:22:01;11.50;99.90
26703;DHT22;14316;51.074;3.704;2023-02-17T11:24:28;11.50;99.90
26703;DHT22;14316;51.074;3.704;2023-02-17T11:27:09;11.50;99.90
26703;DHT22;14316;51.074;3.704;2023-02-17T11:29:36;11.50;99.90
26703;DHT22;14316;51.074;3.704;2023-02-17T11:32:06;11.50;99.90
26703;DHT22;14316;51.074;3.704;2023-02-17T11:34:36;11.50;99.90
26703;DHT22;14316;51.074;3.704;2023-02-17T11:39:39;11.60;99.90
26703;DHT22;14316;51.074;3.704;2023-02-17T11:42:20;11.60;99.90
26703;DHT22;14316;51.074;3.704;2023-02-17T11:44:46;11.60;99.90
26703;DHT22;14316;51.074;3.704;2023-02-17T11:57:56;11.60;99.90
26703;DHT22;14316;51.074;3.704;2023-02-17T12:06:10;11.80;99.90
26703;DHT22;14316;51.074;3.704;2023-02-17T12:08:56;11.80;99.90
26703;DHT22;14316;51.074;3.704;2023-02-17T12:17:03;11.90;99.90
26703;DHT22;14316;51.074;3.704;2023-02-17T12:25:33;12.10;99.90
26703;DHT22;14316;51.074;3.704;2023-02-17T12:31:10;12.20;99.90
26703;DHT22;14316;51.074;3.704;2023-02-17T12:36:40;12.00;99.90
26703;DHT22;14316;51.074;3.704;2023-02-17T12:39:16;12.00;99.90
26703;DHT22;14316;51.074;3.704;2023-02-17T12:41:47;12.00;99.90
26703;DHT22;14316;51.074;3.704;2023-02-17T12:44:23;12.00;99.90
26703;DHT22;14316;51.074;3.704;2023-02-17T12:46:55;12.10;99.90
26703;DHT22;14316;51.074;3.704;2023-02-17T12:49:36;12.20;99.90
26703;DHT22;14316;51.074;3.704;2023-02-17T12:52:27;12.20;99.90
26703;DHT22;14316;51.074;3.704;2023-02-17T12:54:54;12.10;99.90
26703;DHT22;14316;51.074;3.704;2023-02-17T12:57:48;12.20;99.90
26703;DHT22;14316;51.074;3.704;2023-02-17T13:03:01;12.30;99.90
26703;DHT22;14316;51.074;3.704;2023-02-17T13:08:26;12.40;99.90
26703;DHT22;14316;51.074;3.704;2023-02-17T13:11:06;12.40;99.90
26703;DHT22;14316;51.074;3.704;2023-02-17T13:13:33;12.30;99.90
26703;DHT22;14316;51.074;3.704;2023-02-17T13:18:31;12.30;99.90
26703;DHT22;14316;51.074;3.704;2023-02-17T13:23:31;12.30;99.90
26703;DHT22;14316;51.074;3.704;2023-02-17T13:28:44;12.40;99.90
26703;DHT22;14316;51.074;3.704;2023-02-17T13:31:17;12.30;99.90
26703;DHT22;14316;51.074;3.704;2023-02-17T13:39:04;12.30;99.90
26703;DHT22;14316;51.074;3.704;2023-02-17T13:41:46;12.40;99.90
26703;DHT22;14316;51.074;3.704;2023-02-17T13:46:51;12.40;99.90
26703;DHT22;14316;51.074;3.704;2023-02-17T13:49:24;12.40;99.90
26703;DHT22;14316;51.074;3.704;2023-02-17T13:51:52;12.40;99.90
26703;DHT22;14316;51.074;3.704;2023-02-17T13:54:26;12.40;99.90
26703;DHT22;14316;51.074;3.704;2023-02-17T13:56:52;12.40;99.90
26703;DHT22;14316;51.074;3.704;2023-02-17T13:59:25;12.40;99.90
26703;DHT22;14316;51.074;3.704;2023-02-17T14:01:52;12.40;99.90
26703;DHT22;14316;51.074;3.704;2023-02-17T14:06:51;12.30;99.90
26703;DHT22;14316;51.074;3.704;2023-02-17T14:09:29;12.30;99.90
26703;DHT22;14316;51.074;3.704;2023-02-17T14:11:57;12.40;99.90
26703;DHT22;14316;51.074;3.704;2023-02-17T14:14:29;12.30;99.90
26703;DHT22;14316;51.074;3.704;2023-02-17T14:16:59;12.30;99.90
26703;DHT22;14316;51.074;3.704;2023-02-17T14:19:25;12.40;99.90
26703;DHT22;14316;51.074;3.704;2023-02-17T14:22:03;12.30;99.90
26703;DHT22;14316;51.074;3.704;2023-02-17T14:24:35;12.30;99.90
26703;DHT22;14316;51.074;3.704;2023-02-17T14:27:07;12.30;99.90
26703;DHT22;14316;51.074;3.704;2023-02-17T14:29:44;12.20;99.90
26703;DHT22;14316;51.074;3.704;2023-02-17T14:32:36;12.20;99.90
26703;DHT22;14316;51.074;3.704;2023-02-17T14:35:20;12.20;99.90
26703;DHT22;14316;51.074;3.704;2023-02-17T14:37:47;12.20;99.90
26703;DHT22;14316;51.074;3.704;2023-02-17T14:40:23;12.20;99.90
26703;DHT22;14316;51.074;3.704;2023-02-17T14:42:49;12.10;99.90
26703;DHT22;14316;51.074;3.704;2023-02-17T14:45:16;12.00;99.90
26703;DHT22;14316;51.074;3.704;2023-02-17T14:47:43;12.00;99.90
26703;DHT22;14316;51.074;3.704;2023-02-17T14:50:10;11.90;99.90
26703;DHT22;14316;51.074;3.704;2023-02-17T14:52:47;11.90;99.90
26703;DHT22;14316;51.074;3.704;2023-02-17T14:55:28;11.90;99.90
26703;DHT22;14316;51.074;3.704;2023-02-17T14:57:56;11.80;99.90
26703;DHT22;14316;51.074;3.704;2023-02-17T15:00:22;11.80;99.90
26703;DHT22;14316;51.074;3.704;2023-02-17T15:02:48;11.80;99.90
26703;DHT22;14316;51.074;3.704;2023-02-17T15:05:18;11.80;99.90
26703;DHT22;14316;51.074;3.704;2023-02-17T15:07:44;11.70;99.90
26703;DHT22;14316;51.074;3.704;2023-02-17T15:10:18;11.80;99.90
26703;DHT22;14316;51.074;3.704;2023-02-17T15:12:45;11.80;99.90
26703;DHT22;14316;51.074;3.704;2023-02-17T15:15:15;11.70;99.90
26703;DHT22;14316;51.074;3.704;2023-02-17T15:17:41;11.80;99.90
26703;DHT22;14316;51.074;3.704;2023-02-17T15:20:07;11.70;99.90
26703;DHT22;14316;51.074;3.704;2023-02-17T15:22:35;11.70;99.90
26703;DHT22;14316;51.074;3.704;2023-02-17T15:25:16;11.70;99.90
26703;DHT22;14316;51.074;3.704;2023-02-17T15:27:42;11.70;99.90
26703;DHT22;14316;51.074;3.704;2023-02-17T15:30:16;11.70;99.90
26703;DHT22;14316;51.074;3.704;2023-02-17T15:32:42;11.70;99.90
26703;DHT22;14316;51.074;3.704;2023-02-17T15:35:23;11.60;99.90
26703;DHT22;14316;51.074;3.704;2023-02-17T15:37:49;11.60;99.90
26703;DHT22;14316;51.074;3.704;2023-02-17T15:40:18;11.60;99.90
26703;DHT22;14316;51.074;3.704;2023-02-17T15:42:46;11.60;99.90
26703;DHT22;14316;51.074;3.704;2023-02-17T15:45:16;11.60;99.90
26703;DHT22;14316;51.074;3.704;2023-02-17T15:47:46;11.60;99.90
26703;DHT22;14316;51.074;3.704;2023-02-17T15:50:21;11.60;99.90
26703;DHT22;14316;51.074;3.704;2023-02-17T15:52:49;11.60;99.90
26703;DHT22;14316;51.074;3.704;2023-02-17T15:55:19;11.50;99.90
26703;DHT22;14316;51.074;3.704;2023-02-17T15:57:57;11.50;99.90
26703;DHT22;14316;51.074;3.704;2023-02-17T16:00:29;11.50;99.90
26703;DHT22;14316;51.074;3.704;2023-02-17T16:02:55;11.50;99.90
26703;DHT22;14316;51.074;3.704;2023-02-17T16:05:24;11.50;99.90
26703;DHT22;14316;51.074;3.704;2023-02-17T16:07:50;11.50;99.90
26703;DHT22;14316;51.074;3.704;2023-02-17T16:10:19;11.50;99.90
26703;DHT22;14316;51.074;3.704;2023-02-17T16:12:47;11.50;99.90
26703;DHT22;14316;51.074;3.704;2023-02-17T16:15:22;11.40;99.90
26703;DHT22;14316;51.074;3.704;2023-02-17T16:17:49;11.40;99.90
26703;DHT22;14316;51.074;3.704;2023-02-17T16:20:28;11.40;99.90
26703;DHT22;14316;51.074;3.704;2023-02-17T16:22:53;11.50;99.90
26703;DHT22;14316;51.074;3.704;2023-02-17T16:25:21;11.40;99.90
26703;DHT22;14316;51.074;3.704;2023-02-17T16:27:49;11.40;99.90
26703;DHT22;14316;51.074;3.704;2023-02-17T16:30:28;11.40;99.90
26703;DHT22;14316;51.074;3.704;2023-02-17T16:32:54;11.40;99.90
26703;DHT22;14316;51.074;3.704;2023-02-17T16:35:26;11.40;99.90
26703;DHT22;14316;51.074;3.704;2023-02-17T16:38:01;11.30;99.90
26703;DHT22;14316;51.074;3.704;2023-02-17T16:40:29;11.30;99.90
26703;DHT22;14316;51.074;3.704;2023-02-17T16:42:56;11.30;99.90
26703;DHT22;14316;51.074;3.704;2023-02-17T16:45:28;11.30;99.90
26703;DHT22;14316;51.074;3.704;2023-02-17T16:47:57;11.30;99.90
26703;DHT22;14316;51.074;3.704;2023-02-17T16:50:24;11.30;99.90
26703;DHT22;14316;51.074;3.704;2023-02-17T16:52:53;11.30;99.90
26703;DHT22;14316;51.074;3.704;2023-02-17T16:55:21;11.30;99.90
26703;DHT22;14316;51.074;3.704;2023-02-17T16:57:47;11.30;99.90
26703;DHT22;14316;51.074;3.704;2023-02-17T17:00:15;11.30;99.90
26703;DHT22;14316;51.074;3.704;2023-02-17T17:02:42;11.30;99.90
26703;DHT22;14316;51.074;3.704;2023-02-17T17:05:08;11.30;99.90
26703;DHT22;14316;51.074;3.704;2023-02-17T17:07:36;11.30;99.90
26703;DHT22;14316;51.074;3.704;2023-02-17T17:10:03;11.30;99.90
26703;DHT22;14316;51.074;3.704;2023-02-17T17:12:28;11.30;99.90
26703;DHT22;14316;51.074;3.704;2023-02-17T17:14:55;11.30;99.90
26703;DHT22;14316;51.074;3.704;2023-02-17T17:17:20;11.30;99.90
26703;DHT22;14316;51.074;3.704;2023-02-17T17:19:46;11.30;99.90
26703;DHT22;14316;51.074;3.704;2023-02-17T17:22:12;11.20;99.90
26703;DHT22;14316;51.074;3.704;2023-02-17T17:24:39;11.20;99.90
26703;DHT22;14316;51.074;3.704;2023-02-17T17:27:04;11.10;99.90
26703;DHT22;14316;51.074;3.704;2023-02-17T17:29:33;11.10;99.90
26703;DHT22;14316;51.074;3.704;2023-02-17T17:31:59;11.10;99.90
26703;DHT22;14316;51.074;3.704;2023-02-17T17:34:25;11.10;99.90
26703;DHT22;14316;51.074;3.704;2023-02-17T17:36:51;11.10;99.90